createdAt,value
2018-09-28T00:01:03.989Z,9.13
2018-09-28T00:03:33.146Z,9.80
2018-09-28T00:06:02.311Z,9.20
2018-09-28T00:08:31.349Z,9.30
2018-09-28T00:11:00.385Z,9.20
2018-09-28T00:13:29.526Z,9.57
2018-09-28T00:15:58.620Z,8.33
2018-09-28T00:18:27.729Z,8.70
2018-09-28T00:20:57.323Z,9.77
2018-09-28T00:23:26.394Z,8.80
2018-09-28T00:25:55.434Z,9.03
2018-09-28T00:28:24.492Z,9.53
2018-09-28T00:30:53.585Z,10.50
2018-09-28T00:33:22.608Z,10.43
2018-09-28T00:35:51.666Z,11.57
2018-09-28T00:38:20.802Z,10.73
2018-09-28T00:40:50.176Z,10.43
2018-09-28T00:43:20.542Z,10.77
2018-09-28T00:45:49.589Z,10.60
2018-09-28T00:48:18.679Z,10.97
2018-09-28T00:50:47.754Z,10.97
2018-09-28T00:53:16.824Z,10.93
2018-09-28T00:55:45.893Z,10.70
2018-09-28T00:58:15.793Z,11.60
2018-09-28T01:00:44.928Z,11.50
2018-09-28T01:03:14.517Z,11.37
2018-09-28T01:05:43.593Z,12.53
2018-09-28T01:08:12.745Z,12.37
2018-09-28T01:10:41.749Z,11.77
2018-09-28T01:13:11.423Z,11.97
2018-09-28T01:15:40.482Z,12.73
2018-09-28T01:18:09.545Z,12.60
2018-09-28T01:20:38.667Z,13.20
2018-09-28T01:23:07.721Z,12.50
2018-09-28T01:25:36.749Z,13.07
2018-09-28T01:28:06.301Z,12.70
2018-09-28T01:30:35.486Z,13.40
2018-09-28T01:33:04.538Z,14.00
2018-09-28T01:35:33.594Z,13.90
2018-09-28T01:38:03.228Z,12.43
2018-09-28T01:40:32.844Z,13.70
2018-09-28T01:43:01.933Z,14.50
2018-09-28T01:45:30.974Z,14.50
2018-09-28T01:48:00.009Z,14.83
2018-09-28T01:50:29.091Z,14.07
2018-09-28T01:52:58.137Z,15.20
2018-09-28T01:55:27.164Z,13.73
2018-09-28T01:57:56.200Z,14.50
2018-09-28T02:00:25.389Z,14.90
2018-09-28T02:02:54.433Z,14.27
2018-09-28T02:05:24.265Z,13.70
2018-09-28T02:07:53.582Z,14.70
2018-09-28T02:10:22.667Z,14.77
2018-09-28T02:12:51.837Z,14.27
2018-09-28T02:15:20.870Z,14.23
2018-09-28T02:17:49.967Z,14.03
2018-09-28T02:20:19.038Z,15.40
2018-09-28T02:22:48.090Z,14.87
2018-09-28T02:25:17.136Z,15.50
2018-09-28T02:27:46.185Z,13.73
2018-09-28T02:30:15.220Z,15.20
2018-09-28T02:32:44.316Z,14.83
2018-09-28T02:35:13.384Z,15.53
2018-09-28T02:37:42.408Z,15.70
2018-09-28T02:40:11.460Z,17.20
2018-09-28T02:42:40.582Z,16.57
2018-09-28T02:45:09.681Z,17.23
2018-09-28T02:47:38.770Z,17.13
2018-09-28T02:50:07.945Z,16.40
2018-09-28T02:52:37.098Z,18.10
2018-09-28T02:55:06.141Z,17.43
2018-09-28T02:57:35.185Z,19.07
2018-09-28T03:00:06.121Z,17.23
2018-09-28T03:02:35.193Z,18.70
2018-09-28T03:05:04.885Z,18.63
2018-09-28T03:07:33.930Z,18.43
2018-09-28T03:10:03.791Z,19.47
2018-09-28T03:12:32.848Z,17.63
2018-09-28T03:15:01.930Z,17.70
2018-09-28T03:17:30.973Z,19.70
2018-09-28T03:20:00.012Z,20.80
2018-09-28T03:22:29.050Z,18.20
2018-09-28T03:24:58.045Z,19.90
2018-09-28T03:27:27.082Z,20.60
2018-09-28T03:29:56.110Z,18.27
2018-09-28T03:32:25.274Z,19.40
2018-09-28T03:34:54.321Z,19.37
2018-09-28T03:37:23.377Z,18.40
2018-09-28T03:39:52.410Z,18.93
2018-09-28T03:42:21.493Z,19.10
2018-09-28T03:44:50.981Z,19.30
2018-09-28T03:47:20.709Z,19.50
2018-09-28T03:49:49.793Z,17.30
2018-09-28T03:52:18.834Z,19.77
2018-09-28T03:54:47.949Z,19.00
2018-09-28T03:57:16.987Z,19.30
2018-09-28T03:59:46.122Z,21.10
2018-09-28T04:02:15.146Z,20.00
2018-09-28T04:04:44.890Z,18.10
2018-09-28T04:07:13.966Z,17.93
2018-09-28T04:09:43.105Z,19.03
2018-09-28T04:12:12.170Z,18.57
2018-09-28T04:14:41.252Z,19.13
2018-09-28T04:17:10.334Z,20.60
2018-09-28T04:19:39.349Z,18.53
2018-09-28T04:22:08.729Z,18.77
2018-09-28T04:24:37.745Z,19.00
2018-09-28T04:27:06.851Z,18.53
2018-09-28T04:29:35.979Z,19.17
2018-09-28T04:32:05.034Z,19.80
2018-09-28T04:34:34.085Z,18.80
2018-09-28T04:37:04.519Z,18.77
2018-09-28T04:39:33.593Z,19.73
2018-09-28T04:42:02.659Z,20.37
2018-09-28T04:44:31.786Z,19.23
2018-09-28T04:47:00.821Z,20.03
2018-09-28T04:49:29.877Z,19.73
2018-09-28T04:51:58.925Z,20.43
2018-09-28T04:54:28.006Z,20.97
2018-09-28T04:56:57.606Z,21.10
2018-09-28T04:59:27.197Z,22.60
2018-09-28T05:01:56.309Z,23.70
2018-09-28T05:04:25.361Z,21.50
2018-09-28T05:07:00.834Z,21.60
2018-09-28T05:09:29.845Z,23.53
2018-09-28T05:11:58.996Z,22.70
2018-09-28T05:14:28.045Z,22.40
2018-09-28T05:16:57.055Z,22.20
2018-09-28T05:19:26.170Z,22.10
2018-09-28T05:21:55.213Z,23.50
2018-09-28T05:24:24.569Z,21.60
2018-09-28T05:26:54.534Z,22.10
2018-09-28T05:29:23.598Z,44.07
2018-09-28T05:31:52.778Z,23.10
2018-09-28T05:34:21.725Z,22.17
2018-09-28T05:36:50.818Z,24.00
2018-09-28T05:39:19.941Z,24.70
2018-09-28T05:41:48.955Z,22.87
2018-09-28T05:44:17.999Z,21.77
2018-09-28T05:46:49.454Z,23.30
2018-09-28T05:49:18.783Z,23.67
2018-09-28T05:51:48.434Z,23.33
2018-09-28T05:54:17.493Z,25.90
2018-09-28T05:56:47.245Z,27.77
2018-09-28T05:59:21.624Z,25.43
2018-09-28T06:01:55.890Z,28.13
2018-09-28T06:04:30.259Z,26.13
2018-09-28T06:06:59.950Z,25.53
2018-09-28T06:09:29.033Z,26.57
2018-09-28T06:11:58.093Z,27.80
2018-09-28T06:14:27.172Z,26.10
2018-09-28T06:16:56.221Z,26.83
2018-09-28T06:19:25.883Z,27.50
2018-09-28T06:21:54.933Z,26.37
2018-09-28T06:24:24.257Z,26.40
2018-09-28T06:26:53.322Z,28.50
2018-09-28T06:29:22.492Z,29.80
2018-09-28T06:31:51.559Z,27.60
2018-09-28T06:34:20.634Z,28.60
2018-09-28T06:36:49.667Z,29.57
2018-09-28T06:39:18.744Z,29.00
2018-09-28T06:41:47.840Z,29.93
2018-09-28T06:44:16.899Z,30.83
2018-09-28T06:46:46.042Z,33.33
2018-09-28T06:49:15.145Z,32.03
2018-09-28T06:51:44.200Z,29.80
2018-09-28T06:54:13.950Z,32.20
2018-09-28T06:56:43.361Z,32.10
2018-09-28T06:59:12.464Z,34.57
2018-09-28T07:01:41.469Z,35.83
2018-09-28T07:04:10.741Z,32.07
2018-09-28T07:06:39.810Z,30.30
2018-09-28T07:09:11.320Z,34.13
2018-09-28T07:11:40.765Z,35.50
2018-09-28T07:14:10.430Z,36.10
2018-09-28T07:16:40.041Z,38.50
2018-09-28T07:19:09.570Z,36.43
2018-09-28T07:21:38.634Z,38.37
2018-09-28T07:24:07.780Z,40.00
2018-09-28T07:26:36.848Z,37.10
2018-09-28T07:29:06.077Z,40.00
2018-09-28T07:31:35.934Z,39.13
2018-09-28T07:34:04.976Z,38.83
2018-09-28T07:36:34.079Z,37.80
2018-09-28T07:39:03.222Z,39.30
2018-09-28T07:41:32.347Z,38.33
2018-09-28T07:44:01.466Z,35.17
2018-09-28T07:46:30.521Z,32.77
2018-09-28T07:48:59.658Z,26.47
2018-09-28T07:51:28.674Z,24.00
2018-09-28T07:53:57.841Z,22.63
2018-09-28T07:56:27.256Z,21.53
2018-09-28T07:58:56.435Z,19.53
2018-09-28T08:01:25.484Z,20.43
2018-09-28T08:03:54.580Z,18.50
2018-09-28T08:06:23.615Z,18.43
2018-09-28T08:08:52.699Z,18.03
2018-09-28T08:11:21.810Z,14.80
2018-09-28T08:13:51.335Z,16.30
2018-09-28T08:16:21.145Z,14.57
2018-09-28T08:18:50.217Z,15.33
2018-09-28T08:21:20.558Z,14.70
2018-09-28T08:23:49.645Z,14.03
2018-09-28T08:26:18.893Z,14.63
2018-09-28T08:28:54.339Z,10.80
2018-09-28T08:31:23.409Z,12.00
2018-09-28T08:33:52.576Z,10.87
2018-09-28T08:36:21.769Z,9.07
2018-09-28T08:38:50.992Z,7.30
2018-09-28T08:41:20.097Z,9.93
2018-09-28T08:43:49.287Z,7.47
2018-09-28T08:46:18.625Z,6.00
2018-09-28T08:48:48.479Z,5.70
2018-09-28T08:51:17.541Z,5.77
2018-09-28T08:53:46.577Z,6.10
2018-09-28T08:56:15.605Z,5.93
2018-09-28T08:58:44.625Z,5.00
2018-09-28T09:01:13.818Z,6.70
2018-09-28T09:03:42.964Z,6.40
2018-09-28T09:06:12.196Z,5.60
2018-09-28T09:08:42.593Z,6.00
2018-09-28T09:11:11.661Z,6.63
2018-09-28T09:13:40.733Z,6.10
2018-09-28T09:16:10.443Z,6.23
2018-09-28T09:18:39.565Z,6.00
2018-09-28T09:21:08.673Z,6.00
2018-09-28T09:23:38.166Z,6.10
2018-09-28T09:26:07.377Z,6.43
2018-09-28T09:28:36.418Z,6.13
2018-09-28T09:31:05.652Z,6.20
2018-09-28T09:33:34.724Z,6.13
2018-09-28T09:36:04.590Z,5.40
2018-09-28T09:38:33.646Z,5.80
2018-09-28T09:41:02.725Z,4.83
2018-09-28T09:43:31.788Z,5.80
2018-09-28T09:46:01.943Z,5.17
2018-09-28T09:48:31.198Z,5.00
2018-09-28T09:51:00.907Z,4.80
2018-09-28T09:53:30.971Z,5.37
2018-09-28T09:56:00.735Z,5.30
2018-09-28T09:58:29.800Z,5.00
2018-09-28T10:01:04.868Z,4.43
2018-09-28T10:03:40.299Z,3.80
2018-09-28T10:06:10.472Z,5.17
2018-09-28T10:08:39.545Z,6.77
2018-09-28T10:11:08.645Z,6.10
2018-09-28T10:13:37.817Z,5.73
2018-09-28T10:16:06.975Z,3.63
2018-09-28T10:18:36.124Z,4.37
2018-09-28T10:21:05.288Z,4.17
2018-09-28T10:23:34.429Z,3.70
2018-09-28T10:26:04.479Z,4.50
2018-09-28T10:28:34.426Z,5.10
2018-09-28T10:31:03.864Z,3.90
2018-09-28T10:33:33.285Z,2.80
2018-09-28T10:36:02.498Z,4.50
2018-09-28T10:38:31.773Z,4.50
2018-09-28T10:41:04.532Z,5.97
2018-09-28T10:43:33.580Z,4.33
2018-09-28T10:46:03.399Z,4.83
2018-09-28T10:48:32.791Z,4.87
2018-09-28T10:51:01.984Z,4.17
2018-09-28T10:53:31.118Z,4.23
2018-09-28T10:56:00.267Z,4.50
2018-09-28T10:58:29.483Z,4.70
2018-09-28T11:00:58.476Z,4.30
2018-09-28T11:03:27.619Z,4.30
2018-09-28T11:05:57.008Z,4.50
2018-09-28T11:08:26.140Z,4.17
2018-09-28T11:10:55.821Z,4.63
2018-09-28T11:13:24.886Z,3.80
2018-09-28T11:15:53.971Z,3.70
2018-09-28T11:18:23.135Z,4.93
2018-09-28T11:20:52.307Z,4.50
2018-09-28T11:23:22.474Z,3.80
2018-09-28T11:25:52.255Z,4.17
2018-09-28T11:28:22.488Z,4.60
2018-09-28T11:30:51.594Z,4.83
2018-09-28T11:33:20.853Z,3.50
2018-09-28T11:35:49.978Z,3.50
2018-09-28T11:38:19.180Z,4.07
2018-09-28T11:40:48.352Z,3.50
2018-09-28T11:43:17.493Z,3.13
2018-09-28T11:45:46.591Z,4.67
2018-09-28T11:48:15.679Z,3.83
2018-09-28T11:50:45.892Z,3.50
2018-09-28T11:53:15.023Z,4.20
2018-09-28T11:55:44.256Z,3.77
2018-09-28T11:58:14.075Z,5.60
2018-09-28T12:00:43.313Z,4.43
2018-09-28T12:03:12.550Z,4.50
2018-09-28T12:05:42.240Z,3.57
2018-09-28T12:08:11.367Z,3.93
2018-09-28T12:10:40.523Z,4.37
2018-09-28T12:13:10.231Z,3.80
2018-09-28T12:15:39.335Z,3.20
2018-09-28T12:18:09.001Z,3.70
2018-09-28T12:20:38.136Z,3.77
2018-09-28T12:23:07.958Z,2.87
2018-09-28T12:25:37.094Z,3.47
2018-09-28T12:28:06.459Z,3.93
2018-09-28T12:30:35.634Z,3.53
2018-09-28T12:33:04.832Z,3.43
2018-09-28T12:35:33.953Z,3.87
2018-09-28T12:38:03.078Z,3.70
2018-09-28T12:40:32.759Z,3.50
2018-09-28T12:43:05.235Z,2.90
2018-09-28T12:45:34.411Z,3.40
2018-09-28T12:48:03.656Z,3.50
2018-09-28T12:50:32.825Z,3.87
2018-09-28T12:53:02.058Z,3.87
2018-09-28T12:55:31.843Z,3.67
2018-09-28T12:58:01.059Z,3.63
2018-09-28T13:00:30.180Z,4.73
2018-09-28T13:02:59.324Z,3.87
2018-09-28T13:05:28.596Z,3.40
2018-09-28T13:07:57.706Z,3.23
2018-09-28T13:10:27.421Z,3.77
2018-09-28T13:12:56.839Z,4.23
2018-09-28T13:15:25.944Z,3.80
2018-09-28T13:17:55.092Z,4.27
2018-09-28T13:20:24.394Z,4.80
2018-09-28T13:22:53.374Z,4.43
2018-09-28T13:25:22.607Z,5.43
2018-09-28T13:27:51.908Z,3.60
2018-09-28T13:30:21.952Z,3.70
2018-09-28T13:32:51.191Z,4.40
2018-09-28T13:35:20.219Z,3.77
2018-09-28T13:37:50.037Z,3.80
2018-09-28T13:40:19.168Z,4.10
2018-09-28T13:42:48.422Z,3.60
2018-09-28T13:45:17.740Z,4.00
2018-09-28T13:47:46.839Z,4.00
2018-09-28T13:50:16.924Z,3.70
2018-09-28T13:52:46.314Z,4.00
2018-09-28T13:55:16.465Z,4.27
2018-09-28T13:57:45.545Z,3.40
2018-09-28T14:00:14.768Z,3.13
2018-09-28T14:02:43.877Z,3.10
2018-09-28T14:05:12.954Z,2.83
2018-09-28T14:07:42.096Z,3.10
2018-09-28T14:10:11.801Z,3.70
2018-09-28T14:12:40.985Z,3.40
2018-09-28T14:15:10.775Z,3.17
2018-09-28T14:17:39.885Z,2.87
2018-09-28T14:20:09.242Z,2.20
2018-09-28T14:22:38.467Z,2.80
2018-09-28T14:25:07.643Z,2.50
2018-09-28T14:27:36.852Z,3.10
2018-09-28T14:30:06.124Z,3.60
2018-09-28T14:32:35.965Z,2.70
2018-09-28T14:35:05.545Z,2.60
2018-09-28T14:37:34.730Z,2.30
2018-09-28T14:40:04.624Z,2.70
2018-09-28T14:42:33.920Z,3.03
2018-09-28T14:45:03.189Z,2.93
2018-09-28T14:47:32.412Z,2.50
2018-09-28T14:50:01.979Z,2.77
2018-09-28T14:52:31.669Z,2.63
2018-09-28T14:55:01.312Z,2.77
2018-09-28T14:57:30.573Z,3.20
2018-09-28T15:00:00.914Z,2.60
2018-09-28T15:02:30.178Z,2.27
2018-09-28T15:05:00.834Z,2.20
2018-09-28T15:07:29.919Z,2.33
2018-09-28T15:09:59.065Z,2.47
2018-09-28T15:12:28.400Z,3.67
2018-09-28T15:14:57.816Z,3.20
2018-09-28T15:17:27.249Z,1.97
2018-09-28T15:19:56.325Z,2.23
2018-09-28T15:22:25.454Z,2.90
2018-09-28T15:24:54.649Z,2.70
2018-09-28T15:27:23.940Z,2.53
2018-09-28T15:29:53.093Z,2.63
2018-09-28T15:32:22.348Z,2.63
2018-09-28T15:34:51.540Z,2.30
2018-09-28T15:37:20.636Z,2.93
2018-09-28T15:39:49.864Z,2.20
2018-09-28T15:42:19.609Z,2.67
2018-09-28T15:44:49.347Z,4.30
2018-09-28T15:47:18.481Z,4.57
2018-09-28T15:49:48.399Z,3.00
2018-09-28T15:52:18.064Z,2.50
2018-09-28T15:54:47.187Z,2.37
2018-09-28T15:57:16.336Z,2.63
2018-09-28T15:59:46.397Z,2.43
2018-09-28T16:02:15.509Z,2.47
2018-09-28T16:04:44.697Z,2.10
2018-09-28T16:07:14.026Z,2.37
2018-09-28T16:09:43.300Z,2.10
2018-09-28T16:12:12.563Z,3.30
2018-09-28T16:14:41.667Z,2.90
2018-09-28T16:17:10.771Z,2.10
2018-09-28T16:19:39.871Z,2.13
2018-09-28T16:22:09.653Z,2.27
2018-09-28T16:24:39.742Z,1.60
2018-09-28T16:27:08.820Z,1.97
2018-09-28T16:29:38.073Z,2.17
2018-09-28T16:32:07.513Z,2.23
2018-09-28T16:34:36.629Z,2.37
2018-09-28T16:37:05.843Z,2.00
2018-09-28T16:39:35.577Z,2.13
2018-09-28T16:42:05.027Z,1.90
2018-09-28T16:44:35.225Z,2.40
2018-09-28T16:47:05.638Z,2.03
2018-09-28T16:49:34.824Z,1.93
2018-09-28T16:52:04.058Z,1.80
2018-09-28T16:54:33.869Z,2.30
2018-09-28T16:57:03.250Z,1.90
2018-09-28T16:59:33.790Z,2.03
2018-09-28T17:02:02.896Z,2.00
2018-09-28T17:04:32.047Z,2.10
2018-09-28T17:07:01.227Z,1.60
2018-09-28T17:09:30.443Z,1.77
2018-09-28T17:11:59.860Z,1.80
2018-09-28T17:14:29.703Z,2.27
2018-09-28T17:16:58.870Z,1.50
2018-09-28T17:19:34.497Z,1.90
2018-09-28T17:22:03.775Z,2.10
2018-09-28T17:24:33.183Z,1.77
2018-09-28T17:27:02.755Z,1.63
2018-09-28T17:29:31.963Z,8.60
2018-09-28T17:32:01.290Z,2.73
2018-09-28T17:34:30.465Z,2.10
2018-09-28T17:36:59.808Z,2.93
2018-09-28T17:39:29.637Z,3.07
2018-09-28T17:41:59.072Z,3.07
2018-09-28T17:44:28.369Z,2.77
2018-09-28T17:46:57.691Z,3.10
2018-09-28T17:49:26.946Z,3.10
2018-09-28T17:51:57.323Z,3.80
2018-09-28T17:54:26.509Z,3.50
2018-09-28T17:56:56.485Z,3.50
2018-09-28T17:59:25.860Z,2.90
2018-09-28T18:01:55.008Z,3.70
2018-09-28T18:04:24.385Z,4.20
2018-09-28T18:06:53.529Z,2.87
2018-09-28T18:09:22.977Z,3.63
2018-09-28T18:11:52.215Z,3.67
2018-09-28T18:14:21.637Z,3.90
2018-09-28T18:16:51.362Z,3.47
2018-09-28T18:19:21.738Z,3.83
2018-09-28T18:21:50.919Z,4.07
2018-09-28T18:24:20.220Z,3.47
2018-09-28T18:26:50.007Z,3.43
2018-09-28T18:29:19.382Z,3.90
2018-09-28T18:31:49.525Z,3.47
2018-09-28T18:34:18.873Z,3.67
2018-09-28T18:36:48.876Z,3.63
2018-09-28T18:39:26.125Z,3.80
2018-09-28T18:41:57.695Z,3.73
2018-09-28T18:44:29.258Z,3.73
2018-09-28T18:47:01.990Z,3.10
2018-09-28T18:49:32.943Z,3.17
2018-09-28T18:52:04.477Z,3.20
2018-09-28T18:54:36.132Z,3.10
2018-09-28T18:57:08.762Z,3.77
2018-09-28T18:59:42.436Z,2.50
2018-09-28T19:02:12.944Z,2.33
2018-09-28T19:04:46.501Z,3.00
2018-09-28T19:07:18.531Z,2.83
2018-09-28T19:09:52.008Z,2.33
2018-09-28T19:12:22.517Z,3.10
2018-09-28T19:14:52.080Z,2.93
2018-09-28T19:17:24.774Z,2.40
2018-09-28T19:19:55.874Z,3.10
2018-09-28T19:22:25.710Z,2.90
2018-09-28T19:24:55.489Z,3.03
2018-09-28T19:27:25.011Z,2.80
2018-09-28T19:29:54.164Z,2.37
2018-09-28T19:32:24.000Z,3.80
2018-09-28T19:34:54.018Z,3.33
2018-09-28T19:37:23.228Z,2.80
2018-09-28T19:39:52.536Z,3.40
2018-09-28T19:42:21.905Z,3.23
2018-09-28T19:44:51.529Z,2.90
2018-09-28T19:47:21.640Z,3.27
2018-09-28T19:49:51.618Z,2.83
2018-09-28T19:52:20.910Z,3.87
2018-09-28T19:54:50.384Z,2.97
2018-09-28T19:57:19.751Z,2.60
2018-09-28T19:59:49.087Z,2.23
2018-09-28T20:02:19.088Z,3.43
2018-09-28T20:04:48.434Z,4.00
2018-09-28T20:07:18.584Z,3.60
2018-09-28T20:09:48.616Z,3.80
2018-09-28T20:12:17.856Z,4.00
2018-09-28T20:14:47.338Z,4.10
2018-09-28T20:17:17.216Z,18.13
2018-09-28T20:19:46.860Z,6.20
2018-09-28T20:22:16.075Z,3.90
2018-09-28T20:24:45.883Z,4.00
2018-09-28T20:27:16.644Z,2.90
2018-09-28T20:29:46.056Z,2.80
2018-09-28T20:32:15.483Z,3.10
2018-09-28T20:34:44.671Z,3.17
2018-09-28T20:37:14.014Z,5.60
2018-09-28T20:39:43.283Z,3.70
2018-09-28T20:42:13.185Z,3.43
2018-09-28T20:44:42.587Z,3.47
2018-09-28T20:47:11.835Z,3.63
2018-09-28T20:49:40.991Z,3.30
2018-09-28T20:52:10.198Z,4.17
2018-09-28T20:54:39.320Z,12.90
2018-09-28T20:57:09.200Z,11.10
2018-09-28T20:59:39.029Z,4.80
2018-09-28T21:02:08.855Z,2.70
2018-09-28T21:04:37.942Z,3.57
2018-09-28T21:07:07.583Z,2.83
2018-09-28T21:09:36.746Z,2.40
2018-09-28T21:12:05.923Z,2.90
2018-09-28T21:14:35.651Z,4.33
2018-09-28T21:17:04.836Z,3.33
2018-09-28T21:19:34.261Z,4.60
2018-09-28T21:22:03.388Z,3.13
2018-09-28T21:24:32.712Z,3.77
2018-09-28T21:27:02.495Z,3.13
2018-09-28T21:29:31.767Z,3.47
2018-09-28T21:32:01.795Z,3.77
2018-09-28T21:34:31.029Z,3.30
2018-09-28T21:37:00.174Z,3.43
2018-09-28T21:39:29.321Z,3.40
2018-09-28T21:42:00.121Z,2.67
2018-09-28T21:44:35.636Z,3.53
2018-09-28T21:47:04.735Z,3.07
2018-09-28T21:49:33.862Z,3.13
2018-09-28T21:52:02.978Z,3.40
2018-09-28T21:54:32.192Z,3.10
2018-09-28T21:57:01.295Z,2.87
2018-09-28T21:59:30.463Z,3.20
2018-09-28T22:02:00.632Z,2.83
2018-09-28T22:04:29.789Z,2.40
2018-09-28T22:06:58.870Z,2.10
2018-09-28T22:09:28.008Z,2.83
2018-09-28T22:11:57.205Z,2.47
2018-09-28T22:14:27.502Z,2.00
2018-09-28T22:16:57.456Z,3.00
2018-09-28T22:19:26.572Z,3.43
2018-09-28T22:21:55.740Z,3.07
2018-09-28T22:24:25.484Z,3.70
2018-09-28T22:26:55.168Z,3.23
2018-09-28T22:29:24.252Z,3.03
2018-09-28T22:31:53.423Z,2.50
2018-09-28T22:34:23.298Z,3.07
2018-09-28T22:36:52.368Z,2.60
2018-09-28T22:39:22.773Z,2.90
2018-09-28T22:41:52.519Z,4.03
2018-09-28T22:44:21.692Z,3.07
2018-09-28T22:46:50.935Z,4.03
2018-09-28T22:49:20.054Z,3.67
2018-09-28T22:51:49.279Z,4.37
2018-09-28T22:54:18.795Z,3.77
2018-09-28T22:56:47.916Z,3.27
2018-09-28T22:59:17.031Z,3.67
2018-09-28T23:01:46.129Z,2.83
2018-09-28T23:04:16.695Z,4.00
2018-09-28T23:06:45.910Z,3.33
2018-09-28T23:09:14.942Z,3.43
2018-09-28T23:11:44.044Z,3.63
2018-09-28T23:14:13.688Z,3.90
2018-09-28T23:16:42.774Z,3.63
2018-09-28T23:19:11.868Z,3.67
2018-09-28T23:21:41.145Z,3.97
2018-09-28T23:24:10.184Z,3.50
2018-09-28T23:26:39.283Z,4.07
2018-09-28T23:29:08.357Z,4.10
2018-09-28T23:31:37.455Z,3.90
2018-09-28T23:34:06.641Z,2.73
2018-09-28T23:36:35.800Z,3.57
2018-09-28T23:39:07.105Z,3.90
2018-09-28T23:41:36.296Z,4.73
2018-09-28T23:44:05.483Z,4.10
2018-09-28T23:46:34.583Z,3.80
2018-09-28T23:49:04.692Z,3.40
2018-09-28T23:51:33.794Z,3.90
2018-09-28T23:54:02.939Z,3.43
2018-09-28T23:56:32.099Z,4.57
2018-09-28T23:59:01.312Z,3.60
